sensor_id;sensor_type;location;lat;lon;timestamp;pressure;altitude;pressure_sealevel;temperature;humidity
39411;BME280;26579;43.238;23.124;2023-05-19T00:00:15;97248.41;;;13.14;85.19
39411;BME280;26579;43.238;23.124;2023-05-19T00:02:41;97242.25;;;13.16;85.42
39411;BME280;26579;43.238;23.124;2023-05-19T00:05:07;97240.19;;;13.19;85.28
39411;BME280;26579;43.238;23.124;2023-05-19T00:07:35;97232.72;;;13.14;84.98
39411;BME280;26579;43.238;23.124;2023-05-19T00:10:02;97245.03;;;13.24;84.81
39411;BME280;26579;43.238;23.124;2023-05-19T00:12:29;97222.53;;;13.11;85.02
39411;BME280;26579;43.238;23.124;2023-05-19T00:14:55;97237.28;;;13.12;84.89
39411;BME280;26579;43.238;23.124;2023-05-19T00:17:21;97233.69;;;13.13;85.10
39411;BME280;26579;43.238;23.124;2023-05-19T00:19:46;97234.78;;;13.11;85.38
39411;BME280;26579;43.238;23.124;2023-05-19T00:22:13;97235.34;;;13.14;84.78
39411;BME280;26579;43.238;23.124;2023-05-19T00:24:39;97233.69;;;13.13;84.35
39411;BME280;26579;43.238;23.124;2023-05-19T00:27:05;97220.34;;;13.07;84.45
39411;BME280;26579;43.238;23.124;2023-05-19T00:29:30;97234.25;;;13.07;84.86
39411;BME280;26579;43.238;23.124;2023-05-19T00:31:56;97225.41;;;12.99;84.87
39411;BME280;26579;43.238;23.124;2023-05-19T00:34:21;97232.88;;;13.03;84.53
39411;BME280;26579;43.238;23.124;2023-05-19T00:36:47;97231.47;;;12.99;84.56
39411;BME280;26579;43.238;23.124;2023-05-19T00:39:13;97225.94;;;12.93;84.71
39411;BME280;26579;43.238;23.124;2023-05-19T00:41:39;97239.44;;;12.98;84.37
39411;BME280;26579;43.238;23.124;2023-05-19T00:44:06;97237.38;;;12.91;84.62
39411;BME280;26579;43.238;23.124;2023-05-19T00:46:31;97215.03;;;12.78;84.86
39411;BME280;26579;43.238;23.124;2023-05-19T00:48:57;97228.56;;;12.93;84.17
39411;BME280;26579;43.238;23.124;2023-05-19T00:51:25;97221.94;;;12.88;84.08
39411;BME280;26579;43.238;23.124;2023-05-19T00:53:51;97233.50;;;12.86;83.98
39411;BME280;26579;43.238;23.124;2023-05-19T00:56:17;97226.44;;;12.77;84.78
39411;BME280;26579;43.238;23.124;2023-05-19T00:58:44;97234.16;;;12.78;84.37
39411;BME280;26579;43.238;23.124;2023-05-19T01:01:09;97225.03;;;12.63;84.75
39411;BME280;26579;43.238;23.124;2023-05-19T01:03:35;97215.25;;;12.65;84.38
39411;BME280;26579;43.238;23.124;2023-05-19T01:06:03;97220.88;;;12.60;84.23
39411;BME280;26579;43.238;23.124;2023-05-19T01:08:29;97224.44;;;12.59;84.68
39411;BME280;26579;43.238;23.124;2023-05-19T01:10:55;97220.81;;;12.51;85.19
39411;BME280;26579;43.238;23.124;2023-05-19T01:13:20;97214.66;;;12.52;84.68
39411;BME280;26579;43.238;23.124;2023-05-19T01:22:11;97235.94;;;12.47;84.54
39411;BME280;26579;43.238;23.124;2023-05-19T01:32:47;97229.59;;;12.40;84.31
39411;BME280;26579;43.238;23.124;2023-05-19T01:35:14;97247.47;;;12.44;84.48
39411;BME280;26579;43.238;23.124;2023-05-19T01:37:41;97238.50;;;12.37;84.61
39411;BME280;26579;43.238;23.124;2023-05-19T01:40:09;97240.84;;;12.40;84.48
39411;BME280;26579;43.238;23.124;2023-05-19T01:42:36;97240.28;;;12.37;84.77
39411;BME280;26579;43.238;23.124;2023-05-19T01:45:05;97245.13;;;12.41;84.74
39411;BME280;26579;43.238;23.124;2023-05-19T01:47:34;97239.59;;;12.35;85.37
39411;BME280;26579;43.238;23.124;2023-05-19T01:50:00;97244.81;;;12.35;84.81
39411;BME280;26579;43.238;23.124;2023-05-19T01:52:25;97231.19;;;12.31;84.77
39411;BME280;26579;43.238;23.124;2023-05-19T01:54:51;97212.44;;;12.16;85.01
39411;BME280;26579;43.238;23.124;2023-05-19T02:00:32;97236.41;;;12.31;85.46
39411;BME280;26579;43.238;23.124;2023-05-19T02:10:58;97241.75;;;12.30;84.30
39411;BME280;26579;43.238;23.124;2023-05-19T02:13:30;97235.22;;;12.14;84.99
39411;BME280;26579;43.238;23.124;2023-05-19T02:16:02;97236.59;;;12.18;84.97
39411;BME280;26579;43.238;23.124;2023-05-19T02:18:31;97250.25;;;12.22;85.23
39411;BME280;26579;43.238;23.124;2023-05-19T02:20:58;97236.34;;;12.21;84.62
39411;BME280;26579;43.238;23.124;2023-05-19T02:23:24;97236.53;;;12.30;84.30
39411;BME280;26579;43.238;23.124;2023-05-19T02:25:50;97235.84;;;12.28;84.31
39411;BME280;26579;43.238;23.124;2023-05-19T02:28:15;97249.91;;;12.36;84.53
39411;BME280;26579;43.238;23.124;2023-05-19T02:30:41;97243.91;;;12.24;84.61
39411;BME280;26579;43.238;23.124;2023-05-19T02:33:07;97252.06;;;12.31;84.79
39411;BME280;26579;43.238;23.124;2023-05-19T02:35:32;97252.59;;;12.25;84.51
39411;BME280;26579;43.238;23.124;2023-05-19T02:37:58;97250.63;;;12.17;84.86
39411;BME280;26579;43.238;23.124;2023-05-19T02:40:24;97249.91;;;12.15;85.17
39411;BME280;26579;43.238;23.124;2023-05-19T02:42:50;97244.94;;;12.12;85.19
39411;BME280;26579;43.238;23.124;2023-05-19T02:45:15;97253.59;;;12.13;85.08
39411;BME280;26579;43.238;23.124;2023-05-19T02:47:41;97254.59;;;12.21;84.81
39411;BME280;26579;43.238;23.124;2023-05-19T02:50:07;97258.81;;;12.13;85.28
39411;BME280;26579;43.238;23.124;2023-05-19T02:52:33;97261.31;;;12.14;84.92
39411;BME280;26579;43.238;23.124;2023-05-19T02:54:59;97252.47;;;12.06;85.06
39411;BME280;26579;43.238;23.124;2023-05-19T02:57:25;97267.59;;;12.12;85.00
39411;BME280;26579;43.238;23.124;2023-05-19T02:59:50;97251.19;;;12.00;84.94
39411;BME280;26579;43.238;23.124;2023-05-19T03:02:16;97259.31;;;12.07;84.73
39411;BME280;26579;43.238;23.124;2023-05-19T03:04:42;97264.81;;;12.04;85.00
39411;BME280;26579;43.238;23.124;2023-05-19T03:07:08;97261.38;;;12.03;85.37
39411;BME280;26579;43.238;23.124;2023-05-19T03:09:38;97268.69;;;12.09;84.44
39411;BME280;26579;43.238;23.124;2023-05-19T03:12:04;97257.94;;;12.03;84.26
39411;BME280;26579;43.238;23.124;2023-05-19T03:14:31;97268.50;;;12.01;84.50
39411;BME280;26579;43.238;23.124;2023-05-19T03:16:56;97266.97;;;11.98;84.59
39411;BME280;26579;43.238;23.124;2023-05-19T03:19:22;97269.44;;;12.00;84.47
39411;BME280;26579;43.238;23.124;2023-05-19T03:21:48;97271.75;;;11.93;85.10
39411;BME280;26579;43.238;23.124;2023-05-19T03:24:13;97267.59;;;11.91;85.58
39411;BME280;26579;43.238;23.124;2023-05-19T03:26:39;97265.34;;;11.86;85.83
39411;BME280;26579;43.238;23.124;2023-05-19T03:29:05;97263.91;;;11.93;85.80
39411;BME280;26579;43.238;23.124;2023-05-19T03:31:33;97251.13;;;11.90;85.38
39411;BME280;26579;43.238;23.124;2023-05-19T03:34:00;97274.66;;;12.00;85.16
39411;BME280;26579;43.238;23.124;2023-05-19T03:36:25;97239.72;;;11.91;85.13
39411;BME280;26579;43.238;23.124;2023-05-19T03:38:51;97286.03;;;12.10;86.10
39411;BME280;26579;43.238;23.124;2023-05-19T03:41:17;97267.59;;;12.12;85.58
39411;BME280;26579;43.238;23.124;2023-05-19T03:43:42;97287.72;;;12.21;85.33
39411;BME280;26579;43.238;23.124;2023-05-19T03:46:09;97283.06;;;12.24;84.64
39411;BME280;26579;43.238;23.124;2023-05-19T03:48:40;97268.44;;;12.12;85.05
39411;BME280;26579;43.238;23.124;2023-05-19T03:51:32;97296.78;;;12.38;84.52
39411;BME280;26579;43.238;23.124;2023-05-19T03:54:08;97303.38;;;12.42;85.30
39411;BME280;26579;43.238;23.124;2023-05-19T03:56:37;97292.13;;;12.41;85.38
39411;BME280;26579;43.238;23.124;2023-05-19T03:59:06;97304.72;;;12.57;84.89
39411;BME280;26579;43.238;23.124;2023-05-19T04:01:32;97302.69;;;12.61;84.16
39411;BME280;26579;43.238;23.124;2023-05-19T04:03:58;97305.03;;;12.64;84.93
39411;BME280;26579;43.238;23.124;2023-05-19T04:06:24;97305.47;;;12.69;85.87
39411;BME280;26579;43.238;23.124;2023-05-19T04:08:49;97302.72;;;12.71;85.95
39411;BME280;26579;43.238;23.124;2023-05-19T04:11:15;97302.03;;;12.68;85.83
39411;BME280;26579;43.238;23.124;2023-05-19T04:13:41;97314.50;;;12.86;85.89
39411;BME280;26579;43.238;23.124;2023-05-19T04:16:06;97316.31;;;12.95;85.39
39411;BME280;26579;43.238;23.124;2023-05-19T04:18:32;97319.50;;;12.99;85.81
39411;BME280;26579;43.238;23.124;2023-05-19T04:20:58;97311.28;;;13.03;85.33
39411;BME280;26579;43.238;23.124;2023-05-19T04:23:24;97324.09;;;13.16;85.05
39411;BME280;26579;43.238;23.124;2023-05-19T04:25:50;97320.13;;;13.22;84.89
39411;BME280;26579;43.238;23.124;2023-05-19T04:28:15;97319.63;;;13.28;85.53
39411;BME280;26579;43.238;23.124;2023-05-19T04:30:41;97322.16;;;13.39;85.24
39411;BME280;26579;43.238;23.124;2023-05-19T04:33:07;97316.66;;;13.52;85.62
39411;BME280;26579;43.238;23.124;2023-05-19T04:35:33;97316.97;;;13.58;85.34
39411;BME280;26579;43.238;23.124;2023-05-19T04:38:00;97311.72;;;13.58;85.15
39411;BME280;26579;43.238;23.124;2023-05-19T04:40:28;97317.25;;;13.75;85.06
39411;BME280;26579;43.238;23.124;2023-05-19T04:42:56;97311.19;;;13.84;85.65
39411;BME280;26579;43.238;23.124;2023-05-19T04:45:22;97318.38;;;13.92;85.83
39411;BME280;26579;43.238;23.124;2023-05-19T04:47:50;97315.19;;;13.98;85.97
39411;BME280;26579;43.238;23.124;2023-05-19T04:50:16;97307.63;;;14.04;85.51
39411;BME280;26579;43.238;23.124;2023-05-19T04:52:43;97306.81;;;14.14;85.35
39411;BME280;26579;43.238;23.124;2023-05-19T04:55:08;97324.69;;;14.28;85.54
39411;BME280;26579;43.238;23.124;2023-05-19T04:57:34;97304.59;;;14.29;85.32
39411;BME280;26579;43.238;23.124;2023-05-19T05:00:00;97306.34;;;14.38;85.51
39411;BME280;26579;43.238;23.124;2023-05-19T05:02:32;97311.28;;;14.50;85.11
39411;BME280;26579;43.238;23.124;2023-05-19T05:04:59;97321.66;;;14.62;84.70
39411;BME280;26579;43.238;23.124;2023-05-19T05:07:25;97316.41;;;14.62;84.53
39411;BME280;26579;43.238;23.124;2023-05-19T05:09:52;97317.22;;;14.72;84.43
39411;BME280;26579;43.238;23.124;2023-05-19T05:12:20;97318.16;;;14.81;83.91
39411;BME280;26579;43.238;23.124;2023-05-19T05:14:47;97318.66;;;14.94;84.40
39411;BME280;26579;43.238;23.124;2023-05-19T05:17:13;97289.88;;;14.84;84.49
39411;BME280;26579;43.238;23.124;2023-05-19T05:19:39;97314.06;;;15.06;84.34
39411;BME280;26579;43.238;23.124;2023-05-19T05:22:05;97322.56;;;15.17;83.48
39411;BME280;26579;43.238;23.124;2023-05-19T05:24:32;97315.31;;;15.29;83.76
39411;BME280;26579;43.238;23.124;2023-05-19T05:27:01;97323.00;;;15.40;82.86
39411;BME280;26579;43.238;23.124;2023-05-19T05:29:28;97317.47;;;15.44;82.83
39411;BME280;26579;43.238;23.124;2023-05-19T05:31:54;97319.47;;;15.59;83.37
39411;BME280;26579;43.238;23.124;2023-05-19T05:34:21;97325.66;;;15.68;81.61
39411;BME280;26579;43.238;23.124;2023-05-19T05:36:47;97319.81;;;15.74;77.14
39411;BME280;26579;43.238;23.124;2023-05-19T05:39:13;97318.75;;;15.85;77.55
39411;BME280;26579;43.238;23.124;2023-05-19T05:41:40;97317.31;;;15.91;74.55
39411;BME280;26579;43.238;23.124;2023-05-19T05:44:10;97321.00;;;15.98;73.62
39411;BME280;26579;43.238;23.124;2023-05-19T05:46:38;97318.78;;;16.03;69.53
39411;BME280;26579;43.238;23.124;2023-05-19T05:49:04;97330.75;;;16.05;71.23
39411;BME280;26579;43.238;23.124;2023-05-19T05:51:30;97331.00;;;16.12;70.82
39411;BME280;26579;43.238;23.124;2023-05-19T05:53:56;97333.00;;;16.18;71.81
39411;BME280;26579;43.238;23.124;2023-05-19T05:56:30;97337.34;;;16.27;69.98
39411;BME280;26579;43.238;23.124;2023-05-19T05:58:56;97327.97;;;16.25;70.51
39411;BME280;26579;43.238;23.124;2023-05-19T06:01:21;97342.50;;;16.37;71.72
39411;BME280;26579;43.238;23.124;2023-05-19T06:03:47;97348.53;;;16.47;73.73
39411;BME280;26579;43.238;23.124;2023-05-19T06:06:17;97343.94;;;16.49;70.80
39411;BME280;26579;43.238;23.124;2023-05-19T06:08:44;97351.72;;;16.59;69.53
39411;BME280;26579;43.238;23.124;2023-05-19T06:11:10;97358.84;;;16.67;68.31
39411;BME280;26579;43.238;23.124;2023-05-19T06:13:38;97355.91;;;16.70;64.47
39411;BME280;26579;43.238;23.124;2023-05-19T06:16:07;97362.09;;;16.79;66.24
39411;BME280;26579;43.238;23.124;2023-05-19T06:18:43;97358.06;;;16.92;67.07
39411;BME280;26579;43.238;23.124;2023-05-19T06:21:08;97367.13;;;16.98;64.58
39411;BME280;26579;43.238;23.124;2023-05-19T06:23:35;97366.50;;;17.04;64.65
39411;BME280;26579;43.238;23.124;2023-05-19T06:26:01;97335.88;;;16.95;63.85
39411;BME280;26579;43.238;23.124;2023-05-19T06:28:27;97371.03;;;17.20;64.83
39411;BME280;26579;43.238;23.124;2023-05-19T06:30:52;97359.69;;;17.19;65.07
39411;BME280;26579;43.238;23.124;2023-05-19T06:33:28;97365.84;;;17.36;65.30
39411;BME280;26579;43.238;23.124;2023-05-19T06:35:54;97369.00;;;17.40;62.75
39411;BME280;26579;43.238;23.124;2023-05-19T06:38:20;97361.25;;;17.38;62.61
39411;BME280;26579;43.238;23.124;2023-05-19T06:40:46;97362.78;;;17.49;64.54
39411;BME280;26579;43.238;23.124;2023-05-19T06:43:12;97372.72;;;17.63;65.05
39411;BME280;26579;43.238;23.124;2023-05-19T06:45:58;97375.03;;;17.67;64.56
39411;BME280;26579;43.238;23.124;2023-05-19T06:48:25;97369.91;;;17.65;62.74
39411;BME280;26579;43.238;23.124;2023-05-19T06:50:50;97376.03;;;17.74;62.43
39411;BME280;26579;43.238;23.124;2023-05-19T06:53:18;97363.03;;;17.72;62.35
39411;BME280;26579;43.238;23.124;2023-05-19T06:55:44;97371.28;;;17.77;62.81
39411;BME280;26579;43.238;23.124;2023-05-19T06:58:11;97378.25;;;17.86;62.85
39411;BME280;26579;43.238;23.124;2023-05-19T07:00:37;97374.28;;;17.91;62.99
39411;BME280;26579;43.238;23.124;2023-05-19T07:03:05;97364.28;;;18.02;64.50
39411;BME280;26579;43.238;23.124;2023-05-19T07:05:30;97373.38;;;18.16;62.84
39411;BME280;26579;43.238;23.124;2023-05-19T07:07:58;97378.97;;;18.13;61.21
39411;BME280;26579;43.238;23.124;2023-05-19T07:10:27;97377.47;;;18.10;62.84
39411;BME280;26579;43.238;23.124;2023-05-19T07:12:53;97374.66;;;18.12;62.85
39411;BME280;26579;43.238;23.124;2023-05-19T07:15:22;97377.31;;;18.20;62.14
39411;BME280;26579;43.238;23.124;2023-05-19T07:17:48;97378.97;;;18.29;62.32
39411;BME280;26579;43.238;23.124;2023-05-19T07:20:13;97373.56;;;18.39;63.27
39411;BME280;26579;43.238;23.124;2023-05-19T07:22:39;97386.09;;;18.53;63.91
39411;BME280;26579;43.238;23.124;2023-05-19T07:25:06;97381.78;;;18.69;64.16
39411;BME280;26579;43.238;23.124;2023-05-19T07:27:32;97369.91;;;18.73;63.64
39411;BME280;26579;43.238;23.124;2023-05-19T07:29:58;97368.13;;;18.65;60.84
39411;BME280;26579;43.238;23.124;2023-05-19T07:32:24;97354.63;;;18.76;62.16
39411;BME280;26579;43.238;23.124;2023-05-19T07:34:50;97381.78;;;18.93;61.85
39411;BME280;26579;43.238;23.124;2023-05-19T07:37:16;97376.69;;;19.00;62.51
39411;BME280;26579;43.238;23.124;2023-05-19T07:39:42;97371.56;;;18.98;62.45
39411;BME280;26579;43.238;23.124;2023-05-19T07:42:07;97379.13;;;19.10;61.33
39411;BME280;26579;43.238;23.124;2023-05-19T07:44:33;97378.47;;;19.08;61.85
39411;BME280;26579;43.238;23.124;2023-05-19T07:46:59;97358.00;;;19.10;61.97
39411;BME280;26579;43.238;23.124;2023-05-19T07:49:26;97375.78;;;19.24;61.24
39411;BME280;26579;43.238;23.124;2023-05-19T07:51:53;97368.19;;;19.29;61.89
39411;BME280;26579;43.238;23.124;2023-05-19T07:54:19;97374.41;;;19.36;60.18
39411;BME280;26579;43.238;23.124;2023-05-19T07:56:44;97364.19;;;19.41;61.12
39411;BME280;26579;43.238;23.124;2023-05-19T07:59:10;97363.38;;;19.41;60.42
39411;BME280;26579;43.238;23.124;2023-05-19T08:01:36;97361.34;;;19.43;60.80
39411;BME280;26579;43.238;23.124;2023-05-19T08:04:01;97374.56;;;19.43;59.91
39411;BME280;26579;43.238;23.124;2023-05-19T08:06:27;97368.09;;;19.54;60.72
39411;BME280;26579;43.238;23.124;2023-05-19T08:08:53;97362.31;;;19.58;59.54
39411;BME280;26579;43.238;23.124;2023-05-19T08:11:18;97363.13;;;19.67;60.85
39411;BME280;26579;43.238;23.124;2023-05-19T08:13:44;97370.16;;;19.75;61.11
39411;BME280;26579;43.238;23.124;2023-05-19T08:16:10;97362.03;;;19.84;60.58
39411;BME280;26579;43.238;23.124;2023-05-19T08:18:35;97366.97;;;19.87;60.82
39411;BME280;26579;43.238;23.124;2023-05-19T08:21:01;97370.59;;;19.86;58.89
39411;BME280;26579;43.238;23.124;2023-05-19T08:23:27;97360.22;;;19.85;59.56
39411;BME280;26579;43.238;23.124;2023-05-19T08:25:52;97369.75;;;19.94;59.20
39411;BME280;26579;43.238;23.124;2023-05-19T08:28:18;97358.88;;;19.89;58.56
39411;BME280;26579;43.238;23.124;2023-05-19T08:30:44;97378.09;;;20.06;58.02
39411;BME280;26579;43.238;23.124;2023-05-19T08:33:09;97375.63;;;20.04;59.65
39411;BME280;26579;43.238;23.124;2023-05-19T08:35:35;97380.94;;;20.04;57.83
39411;BME280;26579;43.238;23.124;2023-05-19T08:38:01;97383.81;;;20.18;58.53
39411;BME280;26579;43.238;23.124;2023-05-19T08:40:26;97374.03;;;20.18;58.19
39411;BME280;26579;43.238;23.124;2023-05-19T08:42:53;97383.91;;;20.24;58.48
39411;BME280;26579;43.238;23.124;2023-05-19T08:45:19;97377.94;;;20.30;57.16
39411;BME280;26579;43.238;23.124;2023-05-19T08:47:45;97380.16;;;20.42;56.32
39411;BME280;26579;43.238;23.124;2023-05-19T08:50:13;97381.81;;;20.43;56.40
39411;BME280;26579;43.238;23.124;2023-05-19T08:55:28;97385.53;;;20.56;56.86
39411;BME280;26579;43.238;23.124;2023-05-19T08:57:55;97359.06;;;20.56;56.21
39411;BME280;26579;43.238;23.124;2023-05-19T09:00:22;97385.44;;;20.88;55.50
39411;BME280;26579;43.238;23.124;2023-05-19T09:02:48;97386.91;;;20.90;53.67
39411;BME280;26579;43.238;23.124;2023-05-19T09:05:16;97368.44;;;20.82;53.76
39411;BME280;26579;43.238;23.124;2023-05-19T09:07:43;97380.13;;;20.88;53.40
39411;BME280;26579;43.238;23.124;2023-05-19T09:10:09;97381.50;;;20.84;53.17
39411;BME280;26579;43.238;23.124;2023-05-19T09:12:35;97367.94;;;21.01;56.16
39411;BME280;26579;43.238;23.124;2023-05-19T09:15:01;97381.09;;;21.24;57.92
39411;BME280;26579;43.238;23.124;2023-05-19T09:17:27;97367.69;;;21.41;57.92
39411;BME280;26579;43.238;23.124;2023-05-19T09:19:53;97374.91;;;21.47;49.63
39411;BME280;26579;43.238;23.124;2023-05-19T09:22:18;97372.78;;;21.57;49.27
39411;BME280;26579;43.238;23.124;2023-05-19T09:24:44;97368.50;;;21.56;50.54
39411;BME280;26579;43.238;23.124;2023-05-19T09:27:13;97369.78;;;21.60;49.77
39411;BME280;26579;43.238;23.124;2023-05-19T09:29:41;97369.88;;;21.52;48.26
39411;BME280;26579;43.238;23.124;2023-05-19T09:32:07;97365.75;;;21.50;49.69
39411;BME280;26579;43.238;23.124;2023-05-19T09:34:32;97362.13;;;21.51;48.74
39411;BME280;26579;43.238;23.124;2023-05-19T09:36:58;97355.66;;;21.38;48.00
39411;BME280;26579;43.238;23.124;2023-05-19T09:39:24;97363.22;;;21.41;47.91
39411;BME280;26579;43.238;23.124;2023-05-19T09:41:54;97341.47;;;21.46;49.17
39411;BME280;26579;43.238;23.124;2023-05-19T09:46:52;97357.72;;;21.58;48.79
39411;BME280;26579;43.238;23.124;2023-05-19T09:49:22;97353.25;;;21.58;47.62
39411;BME280;26579;43.238;23.124;2023-05-19T09:51:52;97353.09;;;21.81;51.41
39411;BME280;26579;43.238;23.124;2023-05-19T09:54:20;97349.53;;;21.89;47.16
39411;BME280;26579;43.238;23.124;2023-05-19T09:56:59;97353.31;;;21.80;46.55
39411;BME280;26579;43.238;23.124;2023-05-19T09:59:25;97358.38;;;21.96;46.77
39411;BME280;26579;43.238;23.124;2023-05-19T10:01:53;97344.97;;;21.83;44.78
39411;BME280;26579;43.238;23.124;2023-05-19T10:04:19;97350.69;;;22.01;46.42
39411;BME280;26579;43.238;23.124;2023-05-19T10:06:47;97340.78;;;22.10;47.11
39411;BME280;26579;43.238;23.124;2023-05-19T10:09:15;97348.72;;;22.10;46.42
39411;BME280;26579;43.238;23.124;2023-05-19T10:11:41;97340.72;;;22.03;43.79
39411;BME280;26579;43.238;23.124;2023-05-19T10:14:07;97333.63;;;22.10;45.70
39411;BME280;26579;43.238;23.124;2023-05-19T10:16:34;97334.72;;;22.16;43.70
39411;BME280;26579;43.238;23.124;2023-05-19T10:19:01;97337.13;;;22.11;43.02
39411;BME280;26579;43.238;23.124;2023-05-19T10:21:27;97335.91;;;22.13;46.29
39411;BME280;26579;43.238;23.124;2023-05-19T10:23:53;97327.94;;;22.28;45.50
39411;BME280;26579;43.238;23.124;2023-05-19T10:26:19;97341.56;;;22.47;45.38
39411;BME280;26579;43.238;23.124;2023-05-19T10:28:44;97334.38;;;22.41;43.66
39411;BME280;26579;43.238;23.124;2023-05-19T10:31:12;97334.63;;;22.46;44.71
39411;BME280;26579;43.238;23.124;2023-05-19T10:36:20;97329.59;;;22.29;41.43
39411;BME280;26579;43.238;23.124;2023-05-19T10:38:59;97326.72;;;22.31;43.88
39411;BME280;26579;43.238;23.124;2023-05-19T10:44:34;97328.25;;;22.40;44.90
39411;BME280;26579;43.238;23.124;2023-05-19T10:47:05;97335.09;;;22.56;42.77
39411;BME280;26579;43.238;23.124;2023-05-19T10:49:34;97323.03;;;22.75;43.46
39411;BME280;26579;43.238;23.124;2023-05-19T10:52:00;97333.31;;;22.91;44.56
39411;BME280;26579;43.238;23.124;2023-05-19T10:54:41;97331.28;;;22.87;43.82
39411;BME280;26579;43.238;23.124;2023-05-19T10:57:08;97329.03;;;22.90;43.68
39411;BME280;26579;43.238;23.124;2023-05-19T10:59:38;97332.19;;;23.00;44.98
39411;BME280;26579;43.238;23.124;2023-05-19T11:02:04;97340.38;;;22.99;42.33
39411;BME280;26579;43.238;23.124;2023-05-19T11:04:48;97333.50;;;23.11;45.77
39411;BME280;26579;43.238;23.124;2023-05-19T11:07:19;97331.91;;;23.23;43.32
39411;BME280;26579;43.238;23.124;2023-05-19T11:09:51;97316.75;;;23.11;42.81
39411;BME280;26579;43.238;23.124;2023-05-19T11:12:21;97322.69;;;23.13;41.63
39411;BME280;26579;43.238;23.124;2023-05-19T11:14:51;97328.94;;;22.98;40.80
39411;BME280;26579;43.238;23.124;2023-05-19T11:17:18;97330.97;;;23.03;42.32
39411;BME280;26579;43.238;23.124;2023-05-19T11:19:54;97326.97;;;23.14;43.60
39411;BME280;26579;43.238;23.124;2023-05-19T11:22:25;97318.38;;;23.12;42.18
39411;BME280;26579;43.238;23.124;2023-05-19T11:24:53;97316.72;;;23.04;43.29
39411;BME280;26579;43.238;23.124;2023-05-19T11:27:30;97309.03;;;22.94;42.52
39411;BME280;26579;43.238;23.124;2023-05-19T11:30:01;97302.84;;;23.09;43.19
39411;BME280;26579;43.238;23.124;2023-05-19T11:32:33;97300.41;;;23.14;41.55
39411;BME280;26579;43.238;23.124;2023-05-19T11:35:00;97291.09;;;23.24;43.76
39411;BME280;26579;43.238;23.124;2023-05-19T11:37:26;97298.03;;;23.25;42.98
39411;BME280;26579;43.238;23.124;2023-05-19T11:39:52;97301.72;;;23.31;42.87
39411;BME280;26579;43.238;23.124;2023-05-19T11:42:19;97303.34;;;23.25;41.09
39411;BME280;26579;43.238;23.124;2023-05-19T11:44:45;97312.13;;;23.26;42.65
39411;BME280;26579;43.238;23.124;2023-05-19T11:47:12;97301.75;;;23.38;42.63
39411;BME280;26579;43.238;23.124;2023-05-19T11:49:42;97299.81;;;23.18;41.46
39411;BME280;26579;43.238;23.124;2023-05-19T11:52:08;97305.00;;;23.33;43.39
39411;BME280;26579;43.238;23.124;2023-05-19T11:54:34;97297.47;;;23.37;42.13
39411;BME280;26579;43.238;23.124;2023-05-19T11:57:01;97292.97;;;23.44;42.19
39411;BME280;26579;43.238;23.124;2023-05-19T11:59:34;97302.66;;;23.58;44.56
39411;BME280;26579;43.238;23.124;2023-05-19T12:02:01;97295.50;;;23.59;41.61
39411;BME280;26579;43.238;23.124;2023-05-19T12:04:27;97285.72;;;23.66;42.04
39411;BME280;26579;43.238;23.124;2023-05-19T12:06:52;97288.00;;;23.76;39.99
39411;BME280;26579;43.238;23.124;2023-05-19T12:09:18;97273.31;;;23.86;44.58
39411;BME280;26579;43.238;23.124;2023-05-19T12:11:46;97278.47;;;23.94;42.04
39411;BME280;26579;43.238;23.124;2023-05-19T12:14:12;97265.16;;;24.01;43.13
39411;BME280;26579;43.238;23.124;2023-05-19T12:16:38;97258.84;;;24.09;41.20
39411;BME280;26579;43.238;23.124;2023-05-19T12:19:07;97269.06;;;24.18;44.31
39411;BME280;26579;43.238;23.124;2023-05-19T12:21:33;97273.31;;;24.00;40.17
39411;BME280;26579;43.238;23.124;2023-05-19T12:23:58;97260.66;;;23.88;40.13
39411;BME280;26579;43.238;23.124;2023-05-19T12:26:24;97259.44;;;23.98;42.72
39411;BME280;26579;43.238;23.124;2023-05-19T12:28:50;97261.91;;;24.12;41.43
39411;BME280;26579;43.238;23.124;2023-05-19T12:31:16;97252.50;;;24.03;41.17
39411;BME280;26579;43.238;23.124;2023-05-19T12:33:42;97240.78;;;23.84;41.71
39411;BME280;26579;43.238;23.124;2023-05-19T12:36:08;97257.38;;;24.00;40.82
39411;BME280;26579;43.238;23.124;2023-05-19T12:38:34;97252.28;;;24.05;40.94
39411;BME280;26579;43.238;23.124;2023-05-19T12:41:00;97244.88;;;23.93;38.93
39411;BME280;26579;43.238;23.124;2023-05-19T12:43:25;97242.03;;;24.02;44.27
39411;BME280;26579;43.238;23.124;2023-05-19T12:45:51;97230.38;;;23.89;40.82
39411;BME280;26579;43.238;23.124;2023-05-19T12:48:20;97239.66;;;23.52;40.36
39411;BME280;26579;43.238;23.124;2023-05-19T12:50:47;97233.97;;;23.55;41.37
39411;BME280;26579;43.238;23.124;2023-05-19T12:53:13;97232.66;;;23.31;41.72
39411;BME280;26579;43.238;23.124;2023-05-19T12:55:41;97232.91;;;23.43;42.30
39411;BME280;26579;43.238;23.124;2023-05-19T12:58:07;97231.94;;;23.57;46.11
39411;BME280;26579;43.238;23.124;2023-05-19T13:00:42;97224.94;;;23.36;43.47
39411;BME280;26579;43.238;23.124;2023-05-19T13:03:16;97221.63;;;23.34;40.84
39411;BME280;26579;43.238;23.124;2023-05-19T13:05:44;97215.94;;;23.37;41.33
39411;BME280;26579;43.238;23.124;2023-05-19T13:08:13;97218.41;;;23.39;41.54
39411;BME280;26579;43.238;23.124;2023-05-19T13:10:41;97215.97;;;23.50;42.15
39411;BME280;26579;43.238;23.124;2023-05-19T13:13:08;97213.31;;;23.57;43.93
39411;BME280;26579;43.238;23.124;2023-05-19T13:15:37;97214.22;;;23.78;45.29
39411;BME280;26579;43.238;23.124;2023-05-19T13:18:04;97221.78;;;23.74;42.21
39411;BME280;26579;43.238;23.124;2023-05-19T13:20:31;97225.22;;;23.68;41.90
39411;BME280;26579;43.238;23.124;2023-05-19T13:22:56;97211.56;;;23.78;42.52
39411;BME280;26579;43.238;23.124;2023-05-19T13:25:22;97207.25;;;23.83;43.65